Solon, Iowa
Current Conditions -  °F | °C
As of 5:52 PM on Thursday 18 Dec 2014 (Local Time) from KCID Reporting Station
Overcast Overcast  
Wind Chill: -8°   Ceiling: 4200
Heat Index: -4°   Visibility: 9mi
Dew Point: -8°   Wind: 6mph
Humidity: 75%   Direction: 350°N
Pressure: 30.25"   Gusts: NA
Location:  41.81°N, 91.49°W
Report Text: KCID 182352Z 35005KT 9SM BKN042 OVC055 M04/M08 A3025 RMK AO2 SLP260 T10391078 11039 21044 51007
Loading
Personal Weather Stations






























Interactive Weather Map New forecast layout! Learn more

10-Day Weather Forecast

Advertisements
Track Severe Weather on mobile